Time;durP1;ratioP1;P1;durP2;ratioP2;P2;SDS_P1;SDS_P2;PMS_P1;PMS_P2;Temp;Humidity;BMP_temperature;BMP_pressure;BME280_temperature;BME280_humidity;BME280_pressure;Samples;Min_cycle;Max_cycle;Signal;HPM_P1;HPM_P2
2023/08/04 00:01:13;;;;;;;9.60;2.60;;;17.70;99.90;;;;;;4830494;29;20042;-55
2023/08/04 00:03:40;;;;;;;6.40;2.90;;;17.60;99.90;;;;;;4825493;29;20053;-51
2023/08/04 00:06:07;;;;;;;5.20;2.33;;;17.60;99.90;;;;;;4824245;29;20460;-55
2023/08/04 00:08:33;;;;;;;8.43;2.38;;;17.60;99.90;;;;;;4825459;29;20493;-58
2023/08/04 00:11:00;;;;;;;8.93;2.67;;;17.50;99.90;;;;;;4825412;29;20070;-57
2023/08/04 00:13:27;;;;;;;6.63;2.30;;;17.50;99.90;;;;;;4824703;29;20050;-54
2023/08/04 00:15:54;;;;;;;6.43;2.65;;;17.40;99.90;;;;;;4825253;29;20044;-57
2023/08/04 00:18:21;;;;;;;6.97;2.70;;;17.40;99.90;;;;;;4825279;29;20046;-57
2023/08/04 00:20:48;;;;;;;6.22;2.50;;;17.40;99.90;;;;;;4824912;29;20042;-52
2023/08/04 00:23:14;;;;;;;7.32;2.15;;;17.40;99.90;;;;;;4838774;29;20095;-58
2023/08/04 00:25:41;;;;;;;4.93;2.50;;;17.40;99.90;;;;;;4825263;29;20047;-58
2023/08/04 00:28:08;;;;;;;5.78;2.75;;;17.40;99.90;;;;;;4824748;29;20050;-53
2023/08/04 00:30:35;;;;;;;6.30;2.75;;;17.40;99.90;;;;;;4838726;29;20051;-59
2023/08/04 00:33:02;;;;;;;4.05;2.38;;;17.50;99.90;;;;;;4824800;29;20224;-55
2023/08/04 00:35:29;;;;;;;7.32;2.55;;;17.40;99.90;;;;;;4838706;29;20039;-53
2023/08/04 00:37:56;;;;;;;4.40;2.55;;;17.40;99.90;;;;;;4824713;29;20121;-56
2023/08/04 00:40:22;;;;;;;5.57;2.65;;;17.40;99.90;;;;;;4838594;29;20085;-55
2023/08/04 00:42:49;;;;;;;6.57;2.20;;;17.40;99.90;;;;;;4838391;29;20134;-55
2023/08/04 00:45:16;;;;;;;7.97;2.70;;;17.40;99.90;;;;;;4838720;29;20125;-52
2023/08/04 00:47:43;;;;;;;5.15;2.33;;;17.40;99.90;;;;;;4838142;29;20046;-56
2023/08/04 00:50:10;;;;;;;6.07;2.78;;;17.40;99.90;;;;;;4824535;29;20082;-53
2023/08/04 00:52:37;;;;;;;7.30;2.53;;;17.50;99.90;;;;;;4824409;29;20054;-52
2023/08/04 00:55:04;;;;;;;5.93;3.08;;;17.40;99.90;;;;;;4824153;29;20065;-53
2023/08/04 00:57:30;;;;;;;7.22;2.45;;;17.40;99.90;;;;;;4824292;29;20050;-57
2023/08/04 00:59:57;;;;;;;8.85;2.90;;;17.40;99.90;;;;;;4824500;29;20054;-53
2023/08/04 01:02:24;;;;;;;6.82;2.92;;;17.40;99.90;;;;;;4838229;29;20489;-56
2023/08/04 01:04:51;;;;;;;5.57;2.58;;;17.30;99.90;;;;;;4824327;29;20083;-57
2023/08/04 01:07:18;;;;;;;5.70;2.70;;;17.30;99.90;;;;;;4824060;29;20053;-57
2023/08/04 01:09:44;;;;;;;6.60;2.30;;;17.30;99.90;;;;;;4824309;29;20114;-55
2023/08/04 01:12:12;;;;;;;4.63;2.58;;;17.30;99.90;;;;;;4824417;29;20382;-54
2023/08/04 01:14:38;;;;;;;5.68;2.40;;;17.20;99.90;;;;;;4824261;29;20078;-57
2023/08/04 01:17:05;;;;;;;6.88;2.10;;;17.10;99.90;;;;;;4826325;29;20063;-54
2023/08/04 01:19:32;;;;;;;10.57;2.72;;;17.10;99.90;;;;;;4841829;29;20042;-53
2023/08/04 01:21:59;;;;;;;10.27;2.70;;;17.10;99.90;;;;;;4827794;29;20235;-54
2023/08/04 01:24:26;;;;;;;6.05;2.60;;;17.00;99.90;;;;;;4827982;29;20082;-57
2023/08/04 01:26:53;;;;;;;7.78;3.03;;;16.90;99.90;;;;;;4827886;29;20121;-54
2023/08/04 01:29:19;;;;;;;6.10;2.40;;;17.00;99.90;;;;;;4827694;29;20152;-54
2023/08/04 01:31:47;;;;;;;5.25;2.70;;;16.90;99.90;;;;;;4841968;29;20054;-55
2023/08/04 01:34:14;;;;;;;4.45;2.22;;;16.90;99.90;;;;;;4841550;29;20099;-55
2023/08/04 01:36:42;;;;;;;7.45;3.08;;;16.90;99.90;;;;;;4827570;29;20054;-55
2023/08/04 01:39:09;;;;;;;5.97;2.85;;;16.90;99.90;;;;;;4841792;29;20046;-58
2023/08/04 01:41:36;;;;;;;9.38;3.05;;;16.90;99.90;;;;;;4827287;29;20149;-54
2023/08/04 01:44:02;;;;;;;5.65;2.47;;;16.90;99.90;;;;;;4841288;29;20069;-57
2023/08/04 01:46:29;;;;;;;8.55;2.83;;;16.80;99.90;;;;;;4827345;29;20046;-58
2023/08/04 01:48:56;;;;;;;7.72;3.10;;;16.80;99.90;;;;;;4827573;29;20546;-57
2023/08/04 01:51:23;;;;;;;9.40;3.08;;;16.70;99.90;;;;;;4827593;29;20073;-52
2023/08/04 01:53:49;;;;;;;7.93;2.50;;;16.70;99.90;;;;;;4827164;29;20058;-55
2023/08/04 01:56:16;;;;;;;9.98;2.83;;;16.70;99.90;;;;;;4827123;29;20482;-58
2023/08/04 01:58:44;;;;;;;8.48;2.60;;;16.70;99.90;;;;;;4841281;29;20381;-56
2023/08/04 02:01:11;;;;;;;6.75;2.97;;;16.70;99.90;;;;;;4827424;29;20489;-55
2023/08/04 02:03:37;;;;;;;6.68;2.28;;;16.70;99.90;;;;;;4827141;29;20051;-54
2023/08/04 02:06:05;;;;;;;7.65;2.70;;;16.70;99.90;;;;;;4826878;29;20050;-54
2023/08/04 02:08:31;;;;;;;6.20;2.70;;;16.70;99.90;;;;;;4841204;29;20137;-54
2023/08/04 02:10:59;;;;;;;5.88;2.70;;;16.70;99.90;;;;;;4840875;29;20141;-58
2023/08/04 02:13:26;;;;;;;7.53;2.85;;;16.70;99.90;;;;;;4826903;29;20051;-55
2023/08/04 02:15:52;;;;;;;10.25;2.55;;;16.70;99.90;;;;;;4840577;29;20486;-56
2023/08/04 02:18:19;;;;;;;7.18;3.00;;;16.80;99.90;;;;;;4826901;29;20038;-56
2023/08/04 02:20:46;;;;;;;9.20;2.70;;;16.70;99.90;;;;;;4826947;29;20168;-57
2023/08/04 02:23:13;;;;;;;6.65;2.42;;;16.70;99.90;;;;;;4840643;29;20062;-58
2023/08/04 02:25:41;;;;;;;6.32;2.42;;;16.60;99.90;;;;;;4826317;29;20066;-56
2023/08/04 02:28:08;;;;;;;6.43;2.60;;;16.60;99.90;;;;;;4825313;29;20093;-55
2023/08/04 02:30:34;;;;;;;6.07;2.83;;;16.60;99.90;;;;;;4826659;29;20054;-56
2023/08/04 02:33:01;;;;;;;7.35;2.60;;;16.60;99.90;;;;;;4826588;29;20126;-55
2023/08/04 02:35:28;;;;;;;6.00;2.65;;;16.60;99.90;;;;;;4826327;29;20141;-55
2023/08/04 02:37:55;;;;;;;10.07;2.60;;;16.50;99.90;;;;;;4826218;29;20118;-59
2023/08/04 02:40:21;;;;;;;5.63;2.70;;;16.60;99.90;;;;;;4826294;29;20050;-57
2023/08/04 02:42:48;;;;;;;7.40;3.00;;;16.50;99.90;;;;;;4826333;29;20129;-55
2023/08/04 02:45:15;;;;;;;7.10;2.72;;;16.40;99.90;;;;;;4826082;29;20073;-56
2023/08/04 02:47:42;;;;;;;7.25;3.22;;;16.50;99.90;;;;;;4826138;29;20061;-55
2023/08/04 02:50:09;;;;;;;7.15;3.05;;;16.40;99.90;;;;;;4826065;29;20069;-53
2023/08/04 02:52:36;;;;;;;6.82;2.40;;;16.40;99.90;;;;;;4825964;29;20114;-54
2023/08/04 02:55:02;;;;;;;6.82;2.38;;;16.40;99.90;;;;;;4826052;29;20046;-55
2023/08/04 02:57:31;;;;;;;6.07;2.38;;;16.40;99.90;;;;;;4825947;29;20053;-55
2023/08/04 02:59:58;;;;;;;8.05;2.80;;;16.50;99.90;;;;;;4826362;29;20042;-58
2023/08/04 03:02:25;;;;;;;7.40;2.75;;;16.60;99.90;;;;;;4826325;29;20117;-53
2023/08/04 03:04:52;;;;;;;5.45;2.65;;;16.50;99.90;;;;;;4825742;29;20054;-50
2023/08/04 03:07:18;;;;;;;8.48;2.63;;;16.50;99.90;;;;;;4826284;29;20054;-54
2023/08/04 03:09:45;;;;;;;6.18;2.42;;;16.50;99.90;;;;;;4826185;29;20058;-53
2023/08/04 03:12:12;;;;;;;6.03;2.63;;;16.50;99.90;;;;;;4826307;29;20398;-52
2023/08/04 03:14:39;;;;;;;6.63;2.63;;;16.50;99.90;;;;;;4825898;29;20042;-53
2023/08/04 03:17:05;;;;;;;6.75;2.60;;;16.40;99.90;;;;;;4825883;29;20046;-53
2023/08/04 03:19:32;;;;;;;9.07;3.17;;;16.40;99.90;;;;;;4825919;29;20417;-51
2023/08/04 03:21:59;;;;;;;6.93;2.70;;;16.40;99.90;;;;;;4825997;29;20046;-55
2023/08/04 03:24:26;;;;;;;8.60;2.60;;;16.40;99.90;;;;;;4825673;29;20081;-59
2023/08/04 03:26:53;;;;;;;5.80;2.65;;;16.40;99.90;;;;;;4825678;29;20058;-50
2023/08/04 03:29:19;;;;;;;5.90;2.72;;;16.30;99.90;;;;;;4825503;29;20050;-57
2023/08/04 03:31:46;;;;;;;7.03;2.72;;;16.30;99.90;;;;;;4825754;29;20042;-57
2023/08/04 03:34:13;;;;;;;6.40;2.63;;;16.30;99.90;;;;;;4825748;29;20054;-57
2023/08/04 03:36:40;;;;;;;7.55;2.97;;;16.30;99.90;;;;;;4825054;29;20061;-58
2023/08/04 03:39:07;;;;;;;8.32;2.80;;;16.40;99.90;;;;;;4825318;29;20078;-57
2023/08/04 03:41:34;;;;;;;8.40;2.80;;;16.40;99.90;;;;;;4825329;29;20042;-56
2023/08/04 03:44:00;;;;;;;7.38;2.90;;;16.40;99.90;;;;;;4825545;29;20057;-51
2023/08/04 03:46:27;;;;;;;13.50;2.95;;;16.30;99.90;;;;;;4825254;29;20103;-51
2023/08/04 03:48:54;;;;;;;8.77;2.90;;;16.30;99.90;;;;;;4825773;29;20520;-55
2023/08/04 03:51:22;;;;;;;7.95;2.75;;;16.20;99.90;;;;;;4825543;29;20058;-54
2023/08/04 03:53:49;;;;;;;5.88;2.50;;;16.30;99.90;;;;;;4825159;29;20077;-56
2023/08/04 03:56:16;;;;;;;4.97;2.60;;;16.20;99.90;;;;;;4825257;29;20087;-57
2023/08/04 03:58:42;;;;;;;5.68;2.50;;;16.20;99.90;;;;;;4825874;29;20479;-57
2023/08/04 04:01:09;;;;;;;6.45;2.83;;;16.10;99.90;;;;;;4839238;29;20512;-58
2023/08/04 04:03:36;;;;;;;5.50;2.80;;;16.00;99.90;;;;;;4825385;29;20133;-56
2023/08/04 04:06:03;;;;;;;8.00;2.95;;;16.00;99.90;;;;;;4825098;29;20129;-57
2023/08/04 04:08:29;;;;;;;8.40;2.83;;;16.00;99.90;;;;;;4825352;29;20042;-57
2023/08/04 04:10:56;;;;;;;6.40;2.90;;;16.00;99.90;;;;;;4825123;29;20042;-55
2023/08/04 04:13:23;;;;;;;6.72;3.00;;;16.00;99.90;;;;;;4839257;29;20103;-57
2023/08/04 04:15:50;;;;;;;7.43;3.15;;;16.00;99.90;;;;;;4825106;29;20050;-56
2023/08/04 04:18:17;;;;;;;6.80;2.95;;;16.00;99.90;;;;;;4825001;29;20050;-55
2023/08/04 04:20:43;;;;;;;6.18;3.20;;;15.90;99.90;;;;;;4824568;29;20069;-54
2023/08/04 04:23:10;;;;;;;8.05;3.38;;;16.00;99.90;;;;;;4824876;29;20394;-50
2023/08/04 04:25:37;;;;;;;9.60;3.30;;;16.00;99.90;;;;;;4825000;29;20121;-49
2023/08/04 04:28:04;;;;;;;7.13;3.15;;;16.00;99.90;;;;;;4824980;29;20544;-50
2023/08/04 04:30:30;;;;;;;6.80;3.30;;;16.00;99.90;;;;;;4825075;29;20046;-55
2023/08/04 04:32:57;;;;;;;9.50;2.90;;;15.90;99.90;;;;;;4825008;29;20134;-52
2023/08/04 04:35:24;;;;;;;7.88;3.42;;;15.90;99.90;;;;;;4824500;29;20073;-53
2023/08/04 04:37:51;;;;;;;6.35;3.13;;;15.90;99.90;;;;;;4825179;29;20148;-56
2023/08/04 04:40:18;;;;;;;9.10;3.63;;;15.80;99.90;;;;;;4825108;29;20042;-54
2023/08/04 04:42:44;;;;;;;6.00;3.35;;;15.80;99.90;;;;;;4824755;29;20053;-51
2023/08/04 04:45:11;;;;;;;10.15;3.80;;;15.90;99.90;;;;;;4824809;29;20046;-53
2023/08/04 04:47:38;;;;;;;9.50;3.60;;;15.80;99.90;;;;;;4825065;29;20046;-54
2023/08/04 04:50:05;;;;;;;9.88;3.20;;;15.90;99.90;;;;;;4824899;29;20046;-53
2023/08/04 04:52:31;;;;;;;7.80;3.63;;;15.90;99.90;;;;;;4824639;29;20064;-53
2023/08/04 04:54:59;;;;;;;9.90;3.25;;;15.80;99.90;;;;;;4824488;29;20042;-57
2023/08/04 04:57:26;;;;;;;7.32;3.55;;;15.80;99.90;;;;;;4824748;29;20049;-51
2023/08/04 04:59:53;;;;;;;8.90;3.60;;;15.80;99.90;;;;;;4824725;29;20046;-57
2023/08/04 05:02:20;;;;;;;9.75;3.30;;;15.80;99.90;;;;;;4824799;29;20049;-52
2023/08/04 05:04:47;;;;;;;7.53;3.45;;;15.90;99.90;;;;;;4824846;29;20058;-53
2023/08/04 05:07:13;;;;;;;7.93;3.20;;;15.90;99.90;;;;;;4824583;29;20549;-54
2023/08/04 05:09:40;;;;;;;7.43;3.40;;;15.90;99.90;;;;;;4824968;29;20047;-53
2023/08/04 05:12:07;;;;;;;7.22;3.85;;;16.00;99.90;;;;;;4824747;29;20168;-56
2023/08/04 05:14:34;;;;;;;10.45;3.17;;;16.00;99.90;;;;;;4824813;29;20047;-58
2023/08/04 05:17:00;;;;;;;8.27;3.58;;;16.00;99.90;;;;;;4824501;29;20111;-49
2023/08/04 05:19:27;;;;;;;8.23;3.85;;;16.10;99.90;;;;;;4824885;29;20043;-50
2023/08/04 05:21:54;;;;;;;11.15;4.00;;;16.00;99.90;;;;;;4838805;29;20053;-49
2023/08/04 05:24:21;;;;;;;10.38;4.13;;;16.10;99.90;;;;;;4824517;29;20049;-49
2023/08/04 05:26:47;;;;;;;9.88;3.92;;;16.00;99.90;;;;;;4824619;29;20058;-50
2023/08/04 05:29:14;;;;;;;11.70;4.68;;;16.00;99.90;;;;;;4824440;29;20470;-53
2023/08/04 05:31:41;;;;;;;10.07;4.70;;;16.00;99.90;;;;;;4824588;29;20049;-50
2023/08/04 05:34:08;;;;;;;11.43;5.25;;;15.90;99.90;;;;;;4824786;29;20047;-52
2023/08/04 05:36:34;;;;;;;9.38;4.40;;;16.00;99.90;;;;;;4838043;29;20043;-50
2023/08/04 05:39:01;;;;;;;10.80;4.78;;;15.90;99.90;;;;;;4838234;29;20046;-52
2023/08/04 05:41:28;;;;;;;11.18;4.75;;;16.00;99.90;;;;;;4824538;29;20076;-55
2023/08/04 05:43:55;;;;;;;10.52;4.55;;;16.10;99.90;;;;;;4824701;29;20066;-52
2023/08/04 05:46:22;;;;;;;11.30;4.65;;;16.10;99.90;;;;;;4824436;29;20056;-54
2023/08/04 05:48:49;;;;;;;8.20;4.65;;;16.20;99.90;;;;;;4823934;29;20042;-57
2023/08/04 05:51:15;;;;;;;17.42;5.50;;;16.20;99.90;;;;;;4824069;29;20047;-52
2023/08/04 05:53:43;;;;;;;12.65;5.47;;;16.20;99.90;;;;;;4823818;29;20046;-56
2023/08/04 05:56:10;;;;;;;9.05;4.75;;;16.20;99.90;;;;;;4824114;29;20031;-60
2023/08/04 05:58:37;;;;;;;11.50;5.15;;;16.30;99.90;;;;;;4838198;29;20088;-57
2023/08/04 06:01:03;;;;;;;13.23;5.95;;;16.30;99.90;;;;;;4823950;29;20094;-57
2023/08/04 06:03:31;;;;;;;8.55;4.47;;;16.30;99.90;;;;;;4840429;29;20099;-53
2023/08/04 06:05:58;;;;;;;12.60;5.05;;;16.30;99.90;;;;;;4827073;29;20050;-52
2023/08/04 06:08:25;;;;;;;12.88;5.63;;;16.20;99.90;;;;;;4826977;29;20049;-54
2023/08/04 06:10:52;;;;;;;16.20;5.50;;;16.30;99.90;;;;;;4827178;29;20137;-52
2023/08/04 06:13:18;;;;;;;12.52;5.40;;;16.30;99.90;;;;;;4841661;29;20051;-55
2023/08/04 06:15:47;;;;;;;13.77;5.57;;;16.20;99.90;;;;;;4827401;29;20129;-50
2023/08/04 06:18:14;;;;;;;12.85;5.18;;;16.20;99.90;;;;;;4840902;29;20043;-52
2023/08/04 06:20:41;;;;;;;11.02;5.03;;;16.20;99.90;;;;;;4841653;29;20054;-51
2023/08/04 06:23:08;;;;;;;11.55;5.97;;;16.20;99.90;;;;;;4827151;29;20074;-53
2023/08/04 06:25:34;;;;;;;11.60;5.32;;;16.30;99.90;;;;;;4827283;29;20133;-56
2023/08/04 06:28:01;;;;;;;11.43;5.13;;;16.30;99.90;;;;;;4827053;29;20054;-56
2023/08/04 06:30:28;;;;;;;12.15;5.03;;;16.30;99.90;;;;;;4827255;29;20057;-50
2023/08/04 06:32:55;;;;;;;14.13;5.47;;;16.30;99.90;;;;;;4827205;29;20050;-55
2023/08/04 06:35:22;;;;;;;11.13;5.68;;;16.40;99.90;;;;;;4826837;29;20119;-51
2023/08/04 06:37:49;;;;;;;11.48;5.15;;;16.40;99.90;;;;;;4827251;29;20526;-54
2023/08/04 06:40:17;;;;;;;10.20;4.88;;;16.40;99.90;;;;;;4826671;29;20053;-53
2023/08/04 06:42:43;;;;;;;15.45;5.57;;;16.50;99.90;;;;;;4826334;29;20077;-55
2023/08/04 06:45:10;;;;;;;11.02;5.20;;;16.40;99.90;;;;;;4826650;29;20054;-58
2023/08/04 06:47:37;;;;;;;11.55;4.93;;;16.40;99.90;;;;;;4826440;29;20141;-56
2023/08/04 06:50:04;;;;;;;14.45;5.25;;;16.40;99.90;;;;;;4826420;29;20456;-58
2023/08/04 06:52:31;;;;;;;11.50;4.85;;;16.30;99.90;;;;;;4826444;29;20062;-57
2023/08/04 06:54:58;;;;;;;11.55;4.60;;;16.40;99.90;;;;;;4826260;29;20059;-52
2023/08/04 06:57:24;;;;;;;13.65;5.32;;;16.40;99.90;;;;;;4826080;29;20045;-57
2023/08/04 06:59:51;;;;;;;11.65;4.80;;;16.40;99.90;;;;;;4826312;29;20053;-50
2023/08/04 07:02:18;;;;;;;12.00;5.18;;;16.40;99.90;;;;;;4826543;29;20087;-57
2023/08/04 07:04:45;;;;;;;8.80;4.97;;;16.40;99.90;;;;;;4826244;29;20106;-58
2023/08/04 07:07:12;;;;;;;12.60;4.82;;;16.30;99.90;;;;;;4825883;29;20044;-54
2023/08/04 07:09:38;;;;;;;12.52;4.75;;;16.30;99.90;;;;;;4826572;29;20137;-56
2023/08/04 07:12:05;;;;;;;11.15;4.90;;;16.30;99.90;;;;;;4825777;29;20489;-58
2023/08/04 07:14:32;;;;;;;11.30;5.10;;;16.30;99.90;;;;;;4825518;29;20042;-52
2023/08/04 07:16:59;;;;;;;14.38;6.10;;;16.40;99.90;;;;;;4826136;29;20115;-57
2023/08/04 07:19:25;;;;;;;12.68;5.20;;;16.50;99.90;;;;;;4825808;29;20053;-55
2023/08/04 07:21:52;;;;;;;16.38;6.32;;;16.60;99.90;;;;;;4826606;29;20053;-51
2023/08/04 07:24:19;;;;;;;14.23;5.38;;;16.70;99.90;;;;;;4826357;29;20050;-55
2023/08/04 07:26:46;;;;;;;8.30;4.63;;;16.70;99.90;;;;;;4826216;29;20355;-54
2023/08/04 07:29:12;;;;;;;9.23;5.43;;;16.70;99.90;;;;;;4826639;29;20061;-49
2023/08/04 07:31:39;;;;;;;16.80;5.40;;;16.70;99.90;;;;;;4840209;29;20053;-54
2023/08/04 07:34:06;;;;;;;12.15;5.28;;;16.80;99.90;;;;;;4826342;29;20049;-55
2023/08/04 07:36:33;;;;;;;14.25;5.50;;;16.80;99.90;;;;;;4825955;29;20125;-51
2023/08/04 07:39:00;;;;;;;11.63;5.68;;;16.80;99.90;;;;;;4826371;29;20050;-56
2023/08/04 07:41:26;;;;;;;12.25;5.18;;;16.80;99.90;;;;;;4826428;29;20049;-53
2023/08/04 07:43:53;;;;;;;14.35;5.82;;;16.80;99.90;;;;;;4825964;29;20077;-55
2023/08/04 07:46:20;;;;;;;11.00;5.30;;;16.80;99.90;;;;;;4825945;29;20099;-57
2023/08/04 07:48:47;;;;;;;11.43;4.70;;;16.80;99.90;;;;;;4826429;29;20080;-56
2023/08/04 07:51:14;;;;;;;13.18;5.38;;;16.90;99.90;;;;;;4826064;29;20056;-53
2023/08/04 07:53:40;;;;;;;8.73;4.63;;;16.80;99.90;;;;;;4825799;29;20062;-56
2023/08/04 07:56:07;;;;;;;11.13;5.30;;;16.80;99.90;;;;;;4825448;29;20042;-55
2023/08/04 07:58:34;;;;;;;11.30;4.97;;;16.80;99.90;;;;;;4825825;29;20371;-54
2023/08/04 08:01:03;;;;;;;11.20;4.75;;;16.90;99.90;;;;;;4825736;29;20050;-54
2023/08/04 08:03:30;;;;;;;13.77;4.95;;;16.90;99.90;;;;;;4825943;29;20133;-54
2023/08/04 08:05:58;;;;;;;10.02;4.30;;;16.90;99.90;;;;;;4826058;29;20054;-57
2023/08/04 08:08:25;;;;;;;14.85;4.90;;;17.00;99.90;;;;;;4826129;29;20062;-57
2023/08/04 08:10:52;;;;;;;11.65;4.95;;;17.00;99.90;;;;;;4825661;29;20068;-54
2023/08/04 08:13:19;;;;;;;10.85;4.38;;;17.00;99.90;;;;;;4826173;29;20134;-55
2023/08/04 08:15:46;;;;;;;13.07;4.80;;;17.10;99.90;;;;;;4825919;29;20102;-53
2023/08/04 08:18:12;;;;;;;11.73;4.75;;;17.20;99.90;;;;;;4825803;29;20050;-55
2023/08/04 08:20:40;;;;;;;10.48;4.43;;;17.20;99.90;;;;;;4824929;29;20054;-57
2023/08/04 08:23:07;;;;;;;11.52;4.95;;;17.20;99.90;;;;;;4840827;29;20050;-54
2023/08/04 08:25:33;;;;;;;12.25;4.95;;;17.20;99.90;;;;;;4842751;29;20080;-53
2023/08/04 08:28:00;;;;;;;10.73;4.13;;;17.30;99.90;;;;;;4842575;29;20056;-58
2023/08/04 08:30:27;;;;;;;11.80;4.13;;;17.40;99.90;;;;;;4843219;29;20038;-57
2023/08/04 08:32:54;;;;;;;9.70;3.97;;;17.50;99.90;;;;;;4842919;29;20045;-54
2023/08/04 08:35:20;;;;;;;7.25;3.75;;;17.60;99.90;;;;;;4843194;29;20074;-54
2023/08/04 08:37:47;;;;;;;9.88;3.88;;;17.60;99.90;;;;;;4842722;29;20038;-55
2023/08/04 08:40:14;;;;;;;9.10;3.90;;;17.50;99.90;;;;;;4842862;29;20124;-55
2023/08/04 08:42:41;;;;;;;10.93;4.35;;;17.50;99.90;;;;;;4842910;29;20041;-58
2023/08/04 08:45:07;;;;;;;8.82;4.38;;;17.50;99.90;;;;;;4842369;29;20046;-56
2023/08/04 08:47:35;;;;;;;12.57;3.88;;;17.50;99.90;;;;;;4842958;29;20046;-58
2023/08/04 08:50:02;;;;;;;10.38;4.10;;;17.50;99.90;;;;;;4842817;29;20053;-59
2023/08/04 08:52:28;;;;;;;9.55;3.95;;;17.60;99.90;;;;;;4846062;29;20489;-55
2023/08/04 08:54:55;;;;;;;10.63;4.13;;;17.60;99.90;;;;;;4842821;29;20062;-56
2023/08/04 08:57:22;;;;;;;9.60;4.35;;;17.60;99.90;;;;;;4842602;29;20468;-55
2023/08/04 08:59:49;;;;;;;14.93;3.97;;;17.70;99.90;;;;;;4842626;29;20034;-53
2023/08/04 09:02:16;;;;;;;7.85;4.05;;;17.70;99.90;;;;;;4842099;29;20042;-55
2023/08/04 09:04:42;;;;;;;11.02;4.05;;;17.80;99.90;;;;;;4842730;29;20049;-56
2023/08/04 09:07:09;;;;;;;13.82;9.25;;;17.90;99.90;;;;;;4845667;29;20136;-57
2023/08/04 09:09:36;;;;;;;11.43;4.47;;;18.00;99.90;;;;;;4843004;29;20037;-53
2023/08/04 09:12:03;;;;;;;9.38;4.00;;;18.10;99.90;;;;;;4856645;29;20396;-55
2023/08/04 09:14:30;;;;;;;12.32;4.13;;;18.10;99.90;;;;;;4842207;29;20124;-56
2023/08/04 09:16:56;;;;;;;10.57;4.18;;;18.00;99.90;;;;;;4842185;29;20050;-60
2023/08/04 09:19:23;;;;;;;11.82;4.45;;;18.20;99.90;;;;;;4842633;29;20045;-56
2023/08/04 09:21:50;;;;;;;9.32;3.70;;;18.30;99.90;;;;;;4842051;29;20046;-58
2023/08/04 09:24:17;;;;;;;12.15;3.67;;;18.40;99.90;;;;;;4842453;29;20233;-58
2023/08/04 09:26:44;;;;;;;12.05;3.95;;;18.50;99.90;;;;;;4841945;29;20474;-55
2023/08/04 09:29:11;;;;;;;8.00;3.85;;;18.70;99.90;;;;;;4842395;29;20480;-57
2023/08/04 09:31:38;;;;;;;10.98;4.00;;;18.90;99.90;;;;;;4842378;29;20061;-54
2023/08/04 09:34:05;;;;;;;11.68;4.03;;;19.10;99.90;;;;;;4842344;29;20106;-52
2023/08/04 09:36:31;;;;;;;8.65;3.85;;;19.20;99.90;;;;;;4842483;29;20363;-51
2023/08/04 09:38:58;;;;;;;7.78;3.13;;;19.40;99.90;;;;;;4846001;29;20374;-57
2023/08/04 09:41:28;;;;;;;8.13;3.50;;;19.50;99.90;;;;;;4845406;29;20057;-57
2023/08/04 09:43:55;;;;;;;18.00;9.18;;;19.70;99.90;;;;;;4845961;29;20053;-57
2023/08/04 09:46:22;;;;;;;9.43;3.72;;;19.80;99.90;;;;;;4845426;29;20048;-51
2023/08/04 09:48:49;;;;;;;6.53;2.92;;;19.70;99.90;;;;;;4846040;29;20413;-53
2023/08/04 09:51:15;;;;;;;8.15;3.28;;;19.50;99.90;;;;;;4846110;29;20050;-54
2023/08/04 09:53:43;;;;;;;9.68;3.55;;;19.30;99.90;;;;;;4845549;29;20053;-57
2023/08/04 09:56:10;;;;;;;8.65;3.20;;;19.20;99.90;;;;;;4849474;29;20042;-55
2023/08/04 09:58:37;;;;;;;8.50;3.50;;;18.90;99.90;;;;;;4845273;29;20052;-54
2023/08/04 10:01:04;;;;;;;9.02;3.40;;;18.80;99.90;;;;;;4845684;29;20129;-56
2023/08/04 10:03:31;;;;;;;9.98;3.45;;;18.90;99.90;;;;;;4845672;29;20062;-56
2023/08/04 10:05:59;;;;;;;8.85;3.28;;;19.00;99.90;;;;;;4844157;29;20042;-55
2023/08/04 10:08:26;;;;;;;7.03;3.33;;;18.90;99.90;;;;;;4845478;29;20133;-58
2023/08/04 10:10:55;;;;;;;8.98;3.38;;;18.80;99.90;;;;;;4845291;29;20053;-55
2023/08/04 10:13:21;;;;;;;7.95;3.92;;;18.70;99.90;;;;;;4844726;29;20056;-56
2023/08/04 10:15:48;;;;;;;7.88;3.40;;;18.70;99.90;;;;;;4845220;29;20462;-56
2023/08/04 10:18:15;;;;;;;9.85;3.38;;;18.80;99.90;;;;;;4845535;29;20049;-57
2023/08/04 10:20:42;;;;;;;12.75;3.35;;;18.80;99.90;;;;;;4845300;29;20124;-56
2023/08/04 10:23:09;;;;;;;7.97;3.67;;;18.70;99.90;;;;;;4844988;29;20056;-56
2023/08/04 10:25:35;;;;;;;9.02;3.40;;;18.70;99.90;;;;;;4859243;29;20054;-56
2023/08/04 10:28:03;;;;;;;10.13;3.45;;;18.60;99.90;;;;;;4845083;29;20046;-54
2023/08/04 10:30:29;;;;;;;13.70;3.70;;;18.50;99.90;;;;;;4844633;29;20050;-57
2023/08/04 10:33:14;;;;;;;9.33;3.70;;;18.60;99.90;;;;;;4844925;29;20050;-58
2023/08/04 10:35:41;;;;;;;7.70;3.60;;;18.50;99.90;;;;;;4844642;29;20435;-55
2023/08/04 10:38:08;;;;;;;8.43;3.25;;;18.50;99.90;;;;;;4844766;29;20060;-56
2023/08/04 10:40:35;;;;;;;8.55;3.38;;;18.50;99.90;;;;;;4844331;29;20470;-57
2023/08/04 10:43:03;;;;;;;6.60;3.00;;;18.60;99.90;;;;;;4844993;29;20050;-55
2023/08/04 10:45:30;;;;;;;6.88;3.15;;;18.70;99.90;;;;;;4844778;29;20121;-55
2023/08/04 10:47:56;;;;;;;10.85;3.63;;;18.80;99.90;;;;;;4845068;29;20073;-54
2023/08/04 10:50:36;;;;;;;6.47;2.95;;;18.90;99.90;;;;;;4844376;29;20094;-59
2023/08/04 10:53:03;;;;;;;7.85;4.50;;;18.90;99.90;;;;;;4844102;29;20125;-59
2023/08/04 10:55:29;;;;;;;8.85;4.88;;;18.90;99.90;;;;;;4844695;29;20086;-57
2023/08/04 10:57:56;;;;;;;7.82;3.78;;;18.90;99.90;;;;;;4844662;29;20046;-56
2023/08/04 11:00:23;;;;;;;8.18;4.07;;;18.70;99.90;;;;;;4844636;29;20058;-54
2023/08/04 11:02:50;;;;;;;7.75;3.25;;;18.60;99.90;;;;;;4844166;29;20463;-56
2023/08/04 11:05:17;;;;;;;6.97;3.25;;;18.50;99.90;;;;;;4844382;29;20073;-53
2023/08/04 11:07:44;;;;;;;7.63;3.50;;;18.50;99.90;;;;;;4844213;29;20050;-55
2023/08/04 11:10:10;;;;;;;9.00;3.70;;;18.50;99.90;;;;;;4843987;29;20056;-60
2023/08/04 11:12:37;;;;;;;7.78;2.92;;;18.50;99.90;;;;;;4844016;29;20076;-57
2023/08/04 11:15:05;;;;;;;7.13;3.28;;;18.60;99.90;;;;;;4844515;29;20486;-54
2023/08/04 11:17:32;;;;;;;8.10;3.20;;;18.70;99.90;;;;;;4843419;29;20042;-53
2023/08/04 11:19:59;;;;;;;6.07;2.78;;;18.70;99.90;;;;;;4844111;29;20045;-55
2023/08/04 11:22:28;;;;;;;8.32;2.70;;;18.80;99.90;;;;;;4843023;29;20181;-54
2023/08/04 11:24:55;;;;;;;6.63;2.95;;;18.80;99.90;;;;;;4843256;29;20057;-59
2023/08/04 11:27:23;;;;;;;5.35;2.90;;;18.90;99.90;;;;;;4843920;29;20122;-56
2023/08/04 11:29:50;;;;;;;9.23;3.10;;;19.10;99.90;;;;;;4844595;29;20046;-57
2023/08/04 11:32:17;;;;;;;9.65;3.28;;;19.20;99.90;;;;;;4844684;29;20046;-57
2023/08/04 11:34:44;;;;;;;6.55;2.70;;;19.30;99.90;;;;;;4844853;29;20085;-57
2023/08/04 11:37:12;;;;;;;6.13;2.70;;;19.40;99.90;;;;;;4844054;29;20050;-55
2023/08/04 11:39:40;;;;;;;5.68;2.60;;;19.40;99.90;;;;;;4844798;29;20125;-54
2023/08/04 11:42:07;;;;;;;8.65;2.45;;;19.60;99.90;;;;;;4843227;29;20045;-54
2023/08/04 11:44:33;;;;;;;6.20;2.45;;;19.80;99.90;;;;;;4842987;29;20097;-56
2023/08/04 11:47:00;;;;;;;8.85;2.53;;;19.90;99.90;;;;;;4842954;29;20056;-57
2023/08/04 11:49:27;;;;;;;7.38;2.50;;;20.00;99.90;;;;;;4857073;29;20050;-59
2023/08/04 11:51:54;;;;;;;7.03;2.38;;;20.00;99.90;;;;;;4842702;29;20057;-55
2023/08/04 11:54:21;;;;;;;6.47;2.53;;;20.20;99.90;;;;;;4841429;29;20054;-57
2023/08/04 11:56:48;;;;;;;5.90;2.70;;;20.30;99.90;;;;;;4843574;29;20427;-56
2023/08/04 11:59:14;;;;;;;6.60;2.67;;;20.60;99.90;;;;;;4844266;29;20419;-54
2023/08/04 12:01:41;;;;;;;7.32;2.80;;;20.60;99.90;;;;;;4843814;29;20084;-59
2023/08/04 12:04:28;;;;;;;3.90;2.03;;;20.70;99.90;;;;;;4843996;29;20045;-58
2023/08/04 12:06:55;;;;;;;7.50;2.10;;;20.70;99.90;;;;;;4844033;29;20124;-58
2023/08/04 12:09:22;;;;;;;7.28;3.00;;;20.60;99.90;;;;;;4843944;29;20046;-57
2023/08/04 12:11:48;;;;;;;4.97;2.28;;;20.70;99.80;;;;;;4857931;29;20427;-56
2023/08/04 12:14:16;;;;;;;8.35;2.17;;;20.70;99.90;;;;;;4843537;29;20098;-56
2023/08/04 12:16:43;;;;;;;7.00;1.98;;;20.80;99.50;;;;;;4843647;29;20466;-52
2023/08/04 12:19:10;;;;;;;5.72;2.08;;;20.90;99.30;;;;;;4857818;29;20125;-59
2023/08/04 12:21:36;;;;;;;6.63;2.08;;;21.10;99.30;;;;;;4843565;29;20053;-58
2023/08/04 12:24:03;;;;;;;3.85;1.90;;;21.10;98.60;;;;;;4843435;29;20050;-58
2023/08/04 12:26:30;;;;;;;6.43;2.40;;;21.10;99.30;;;;;;4841953;29;20148;-56
2023/08/04 12:28:57;;;;;;;5.45;2.53;;;21.00;98.20;;;;;;4843552;29;20556;-57
2023/08/04 12:31:23;;;;;;;4.20;2.00;;;21.00;98.80;;;;;;4843457;29;20480;-58
2023/08/04 12:33:50;;;;;;;5.03;2.42;;;21.10;98.90;;;;;;4843359;29;20057;-58
2023/08/04 12:36:17;;;;;;;4.43;2.00;;;21.30;98.70;;;;;;4843266;29;20044;-57
2023/08/04 12:38:44;;;;;;;5.30;2.20;;;21.30;98.30;;;;;;4843292;29;20045;-52
2023/08/04 12:41:11;;;;;;;4.35;2.15;;;21.20;98.50;;;;;;4843252;29;20049;-52